createdAt,value
2022-12-23T00:01:16.164Z,99402.00
2022-12-23T00:03:45.357Z,99416.00
2022-12-23T00:06:18.357Z,99405.00
2022-12-23T00:08:47.839Z,99406.00
2022-12-23T00:11:21.497Z,99410.00
2022-12-23T00:14:07.528Z,99414.00
2022-12-23T00:16:39.480Z,99412.00
2022-12-23T00:19:08.244Z,99414.00
2022-12-23T00:21:37.060Z,99403.00
2022-12-23T00:24:06.549Z,99410.00
2022-12-23T00:26:35.370Z,99407.00
2022-12-23T00:29:04.249Z,99399.00
2022-12-23T00:31:32.872Z,99397.00
2022-12-23T00:34:02.885Z,99393.00
2022-12-23T00:36:32.456Z,99395.00
2022-12-23T00:39:29.748Z,99389.00
2022-12-23T00:42:15.649Z,99379.00
2022-12-23T00:44:44.318Z,99385.00
2022-12-23T00:47:33.264Z,99385.00
2022-12-23T00:50:03.585Z,99373.00
2022-12-23T00:52:32.924Z,99373.00
2022-12-23T00:55:01.575Z,99376.00
2022-12-23T00:57:31.677Z,99378.00
2022-12-23T01:00:00.286Z,99379.00
2022-12-23T01:02:46.617Z,99379.00
2022-12-23T01:08:22.706Z,99384.00
2022-12-23T01:10:51.605Z,99376.00
2022-12-23T01:13:21.203Z,99369.00
2022-12-23T01:15:50.074Z,99371.00
2022-12-23T01:18:18.818Z,99375.00
2022-12-23T01:20:47.502Z,99380.00
2022-12-23T01:23:16.236Z,99366.00
2022-12-23T01:25:48.122Z,99359.00
2022-12-23T01:28:16.759Z,99363.00
2022-12-23T01:30:45.412Z,99361.00
2022-12-23T01:33:14.225Z,99348.00
2022-12-23T01:35:42.945Z,99352.00
2022-12-23T01:38:11.678Z,99354.00
2022-12-23T01:40:43.655Z,99347.00
2022-12-23T01:43:16.810Z,99350.00
2022-12-23T01:45:46.070Z,99343.00
2022-12-23T01:48:19.941Z,99342.00
2022-12-23T01:50:56.199Z,99345.00
2022-12-23T01:53:31.381Z,99345.00
2022-12-23T01:56:07.983Z,99347.00
2022-12-23T01:58:43.447Z,99343.00
2022-12-23T02:01:30.995Z,99343.00
2022-12-23T02:04:04.111Z,99346.00
2022-12-23T02:06:54.469Z,99342.00
2022-12-23T02:09:26.919Z,99348.00
2022-12-23T02:12:32.141Z,99343.00
2022-12-23T02:15:36.948Z,99352.00
2022-12-23T02:18:23.196Z,99349.00
2022-12-23T02:21:23.383Z,99343.00
2022-12-23T02:24:36.485Z,99341.00
2022-12-23T02:27:20.173Z,99326.00
2022-12-23T02:30:42.145Z,99328.00
2022-12-23T02:33:52.725Z,99340.00
2022-12-23T02:36:40.471Z,99336.00
2022-12-23T02:39:20.293Z,99337.00
2022-12-23T02:41:58.813Z,99334.00
2022-12-23T02:44:39.178Z,99338.00
2022-12-23T02:47:16.013Z,99325.00
2022-12-23T02:49:54.870Z,99335.00
2022-12-23T02:52:30.547Z,99335.00
2022-12-23T02:55:06.440Z,99337.00
2022-12-23T02:57:42.266Z,99329.00
2022-12-23T03:00:13.518Z,99326.00
2022-12-23T03:02:45.329Z,99319.00
2022-12-23T03:05:28.494Z,99309.00
2022-12-23T03:08:04.178Z,99307.00
2022-12-23T03:10:57.325Z,99308.00
2022-12-23T03:13:43.769Z,99306.00
2022-12-23T03:16:23.413Z,99305.00
2022-12-23T03:19:12.489Z,99308.00
2022-12-23T03:21:49.287Z,99307.00
2022-12-23T03:24:30.943Z,99298.00
2022-12-23T03:27:09.933Z,99288.00
2022-12-23T03:29:46.886Z,99290.00
2022-12-23T03:32:18.210Z,99290.00
2022-12-23T03:34:53.047Z,99289.00
2022-12-23T03:37:25.547Z,99288.00
2022-12-23T03:40:02.434Z,99294.00
2022-12-23T03:42:38.582Z,99284.00
2022-12-23T03:48:11.026Z,99275.00
2022-12-23T03:50:44.324Z,99272.00
2022-12-23T03:53:21.373Z,99270.00
2022-12-23T03:55:57.101Z,99256.00
2022-12-23T03:58:36.617Z,99271.00
2022-12-23T04:01:18.002Z,99267.00
2022-12-23T04:03:58.701Z,99261.00
2022-12-23T04:06:37.571Z,99255.00
2022-12-23T04:09:08.865Z,99259.00
2022-12-23T04:11:38.842Z,99264.00
2022-12-23T04:14:09.083Z,99254.00
2022-12-23T04:16:38.231Z,99254.00
2022-12-23T04:19:06.892Z,99246.00
2022-12-23T04:21:36.934Z,99242.00
2022-12-23T04:24:06.144Z,99247.00
2022-12-23T04:26:34.795Z,99239.00
2022-12-23T04:29:03.630Z,99220.00
2022-12-23T04:31:32.562Z,99225.00
2022-12-23T04:34:01.230Z,99224.00
2022-12-23T04:36:29.938Z,99225.00
2022-12-23T04:38:59.994Z,99223.00
2022-12-23T04:41:28.700Z,99224.00
2022-12-23T04:43:57.383Z,99225.00
2022-12-23T04:46:26.148Z,99229.00
2022-12-23T04:48:54.916Z,99226.00
2022-12-23T04:51:23.815Z,99217.00
2022-12-23T04:53:52.484Z,99214.00
2022-12-23T04:56:23.078Z,99213.00
2022-12-23T04:58:51.791Z,99209.00
2022-12-23T05:01:20.606Z,99208.00
2022-12-23T05:03:49.262Z,99210.00
2022-12-23T05:06:17.932Z,99204.00
2022-12-23T05:08:46.588Z,99205.00
2022-12-23T05:11:15.272Z,99197.00
2022-12-23T05:13:45.269Z,99200.00
2022-12-23T05:16:14.041Z,99179.00
2022-12-23T05:18:42.767Z,99184.00
2022-12-23T05:21:11.633Z,99179.00
2022-12-23T05:23:40.606Z,99177.00
2022-12-23T05:26:09.941Z,99178.00
2022-12-23T05:28:38.754Z,99176.00
2022-12-23T05:31:09.940Z,99172.00
2022-12-23T05:33:38.834Z,99171.00
2022-12-23T05:36:08.708Z,99170.00
2022-12-23T05:38:37.324Z,99162.00
2022-12-23T05:41:06.754Z,99165.00
2022-12-23T05:43:35.483Z,99161.00
2022-12-23T05:46:04.414Z,99163.00
2022-12-23T05:48:34.615Z,99166.00
2022-12-23T05:51:03.262Z,99169.00
2022-12-23T05:53:32.209Z,99167.00
2022-12-23T05:56:04.248Z,99167.00
2022-12-23T05:58:33.066Z,99158.00
2022-12-23T06:01:03.933Z,99153.00
2022-12-23T06:03:34.281Z,99163.00
2022-12-23T06:06:03.112Z,99170.00
2022-12-23T06:08:31.845Z,99171.00
2022-12-23T06:11:00.554Z,99162.00
2022-12-23T06:13:29.172Z,99169.00
2022-12-23T06:15:57.766Z,99159.00
2022-12-23T06:18:26.461Z,99163.00
2022-12-23T06:20:56.514Z,99153.00
2022-12-23T06:23:26.375Z,99160.00
2022-12-23T06:26:01.167Z,99163.00
2022-12-23T06:28:30.677Z,99167.00
2022-12-23T06:30:59.754Z,99164.00
2022-12-23T06:33:28.455Z,99166.00
2022-12-23T06:35:58.636Z,99172.00
2022-12-23T06:38:27.609Z,99170.00
2022-12-23T06:40:56.272Z,99164.00
2022-12-23T06:43:25.047Z,99163.00
2022-12-23T06:45:53.860Z,99161.00
2022-12-23T06:48:22.704Z,99153.00
2022-12-23T06:50:51.384Z,99162.00
2022-12-23T06:53:22.322Z,99150.00
2022-12-23T06:55:51.052Z,99153.00
2022-12-23T06:58:19.769Z,99153.00
2022-12-23T07:00:48.482Z,99151.00
2022-12-23T07:03:17.489Z,99158.00
2022-12-23T07:05:48.984Z,99156.00
2022-12-23T07:08:17.761Z,99156.00
2022-12-23T07:10:48.078Z,99153.00
2022-12-23T07:13:16.859Z,99151.00
2022-12-23T07:15:45.518Z,99145.00
2022-12-23T07:18:14.216Z,99151.00
2022-12-23T07:20:42.890Z,99148.00
2022-12-23T07:23:11.529Z,99143.00
2022-12-23T07:25:40.177Z,99139.00
2022-12-23T07:28:10.357Z,99132.00
2022-12-23T07:30:38.980Z,99139.00
2022-12-23T07:33:07.664Z,99142.00
2022-12-23T07:35:36.464Z,99135.00
2022-12-23T07:38:05.353Z,99137.00
2022-12-23T07:40:34.017Z,99126.00
2022-12-23T07:43:03.029Z,99128.00
2022-12-23T07:45:33.072Z,99126.00
2022-12-23T07:49:16.011Z,99120.00
2022-12-23T07:51:44.665Z,99117.00
2022-12-23T07:54:14.586Z,99122.00
2022-12-23T07:56:43.267Z,99108.00
2022-12-23T07:59:11.909Z,99107.00
2022-12-23T08:01:42.092Z,99106.00
2022-12-23T08:04:10.856Z,99112.00
2022-12-23T08:06:39.441Z,99102.00
2022-12-23T08:09:09.548Z,99100.00
2022-12-23T08:11:38.349Z,99100.00
2022-12-23T08:14:07.200Z,99090.00
2022-12-23T08:16:43.034Z,99089.00
2022-12-23T08:19:13.761Z,99090.00
2022-12-23T08:21:42.506Z,99092.00
2022-12-23T08:24:11.295Z,99094.00
2022-12-23T08:26:40.084Z,99090.00
2022-12-23T08:29:08.854Z,99088.00
2022-12-23T08:31:37.507Z,99091.00
2022-12-23T08:34:06.262Z,99094.00
2022-12-23T08:36:37.793Z,99082.00
2022-12-23T08:39:10.828Z,99083.00
2022-12-23T08:41:42.683Z,99078.00
2022-12-23T08:44:11.945Z,99084.00
2022-12-23T08:46:41.869Z,99079.00
2022-12-23T08:49:11.909Z,99074.00
2022-12-23T08:51:42.644Z,99078.00
2022-12-23T08:54:11.345Z,99081.00
2022-12-23T08:56:43.340Z,99079.00
2022-12-23T08:59:19.254Z,99071.00
2022-12-23T09:01:49.726Z,99076.00
2022-12-23T09:04:18.753Z,99077.00
2022-12-23T09:06:48.853Z,99071.00
2022-12-23T09:09:17.875Z,99072.00
2022-12-23T09:11:46.567Z,99081.00
2022-12-23T09:14:15.378Z,99067.00
2022-12-23T09:16:44.068Z,99067.00
2022-12-23T09:19:12.799Z,99064.00
2022-12-23T09:21:41.425Z,99062.00
2022-12-23T09:24:11.390Z,99059.00
2022-12-23T09:26:40.190Z,99059.00
2022-12-23T09:29:08.855Z,99056.00
2022-12-23T09:31:38.159Z,99059.00
2022-12-23T09:34:07.631Z,99040.00
2022-12-23T09:36:36.193Z,99041.00
2022-12-23T09:39:05.319Z,99048.00
2022-12-23T09:42:07.054Z,99050.00
2022-12-23T09:44:58.613Z,99040.00
2022-12-23T09:47:30.761Z,99029.00
2022-12-23T09:50:03.476Z,99034.00
2022-12-23T09:52:42.811Z,99034.00
2022-12-23T09:55:14.083Z,99027.00
2022-12-23T09:57:52.151Z,99031.00
2022-12-23T10:00:23.292Z,99028.00
2022-12-23T10:03:14.618Z,99034.00
2022-12-23T10:06:02.613Z,99027.00
2022-12-23T10:08:37.840Z,99026.00
2022-12-23T10:11:15.192Z,99021.00
2022-12-23T10:13:49.961Z,99010.00
2022-12-23T10:16:22.432Z,99010.00
2022-12-23T10:19:00.598Z,99011.00
2022-12-23T10:21:42.223Z,99019.00
2022-12-23T10:24:23.553Z,98998.00
2022-12-23T10:26:55.681Z,99011.00
2022-12-23T10:29:28.703Z,99009.00
2022-12-23T10:32:19.703Z,99013.00
2022-12-23T10:34:55.945Z,99008.00
2022-12-23T10:37:35.840Z,99005.00
2022-12-23T10:40:20.730Z,99003.00
2022-12-23T10:43:04.216Z,98999.00
2022-12-23T10:45:51.360Z,98995.00
2022-12-23T10:48:48.051Z,99010.00
2022-12-23T10:51:23.102Z,99003.00
2022-12-23T10:53:57.641Z,99005.00
2022-12-23T10:56:27.076Z,99005.00
2022-12-23T10:59:00.547Z,99003.00
2022-12-23T11:01:33.395Z,99013.00
2022-12-23T11:04:09.067Z,99016.00
2022-12-23T11:06:43.688Z,99011.00
2022-12-23T11:09:21.249Z,99011.00
2022-12-23T11:12:02.842Z,99016.00
2022-12-23T11:14:40.164Z,99023.00
2022-12-23T11:17:25.154Z,99017.00
2022-12-23T11:20:15.432Z,99020.00
2022-12-23T11:22:51.111Z,99018.00
2022-12-23T11:25:29.998Z,99024.00
2022-12-23T11:28:04.147Z,99024.00
2022-12-23T11:30:37.669Z,99017.00
2022-12-23T11:33:07.888Z,99018.00
2022-12-23T11:35:38.327Z,99027.00
2022-12-23T11:38:15.694Z,99027.00
2022-12-23T11:40:48.363Z,99030.00
2022-12-23T11:43:21.078Z,99044.00
2022-12-23T11:45:49.784Z,99034.00
2022-12-23T11:48:31.568Z,99036.00
2022-12-23T11:51:03.139Z,99033.00
2022-12-23T11:53:32.561Z,99034.00
2022-12-23T11:56:05.835Z,99037.00
2022-12-23T11:58:47.361Z,99035.00
2022-12-23T12:01:21.581Z,99035.00
2022-12-23T12:03:57.496Z,99027.00
2022-12-23T12:06:28.178Z,99038.00
2022-12-23T12:09:01.388Z,99037.00
2022-12-23T12:11:37.647Z,99033.00
2022-12-23T12:14:09.307Z,99035.00
2022-12-23T12:16:56.133Z,99037.00
2022-12-23T12:19:31.324Z,99039.00
2022-12-23T12:22:07.050Z,99035.00
2022-12-23T12:24:43.219Z,99043.00
2022-12-23T12:27:13.406Z,99047.00
2022-12-23T12:29:49.555Z,99048.00
2022-12-23T12:32:24.189Z,99056.00
2022-12-23T12:35:02.781Z,99061.00
2022-12-23T12:37:42.129Z,99062.00
2022-12-23T12:40:27.565Z,99066.00
2022-12-23T12:43:01.757Z,99065.00
2022-12-23T12:45:40.998Z,99048.00
2022-12-23T12:48:31.759Z,99056.00
2022-12-23T12:51:17.878Z,99056.00
2022-12-23T12:54:07.679Z,99050.00
2022-12-23T12:56:44.958Z,99056.00
2022-12-23T12:59:20.829Z,99052.00
2022-12-23T13:02:10.725Z,99047.00
2022-12-23T13:05:20.815Z,99053.00
2022-12-23T13:08:19.473Z,99061.00
2022-12-23T13:10:53.289Z,99053.00
2022-12-23T13:13:39.783Z,99061.00
2022-12-23T13:16:26.416Z,99062.00
2022-12-23T13:19:03.757Z,99067.00
2022-12-23T13:21:41.721Z,99068.00
2022-12-23T13:24:25.404Z,99063.00
2022-12-23T13:27:07.200Z,99066.00
2022-12-23T13:29:58.319Z,99035.00
2022-12-23T13:32:47.032Z,99034.00
2022-12-23T13:35:34.157Z,99037.00
2022-12-23T13:38:22.127Z,99047.00
2022-12-23T13:41:04.628Z,99058.00
2022-12-23T13:43:46.385Z,99054.00
2022-12-23T13:46:24.115Z,99058.00
2022-12-23T13:49:04.964Z,99064.00
2022-12-23T13:51:42.978Z,99058.00
2022-12-23T13:54:28.182Z,99049.00
2022-12-23T13:57:11.059Z,99057.00
2022-12-23T13:59:42.620Z,99052.00
2022-12-23T14:02:52.513Z,99059.00
2022-12-23T14:05:35.226Z,99055.00
2022-12-23T14:08:08.218Z,99049.00
2022-12-23T14:10:38.133Z,99054.00
2022-12-23T14:13:10.022Z,99057.00
2022-12-23T14:15:57.989Z,99059.00
2022-12-23T14:18:55.798Z,99063.00
2022-12-23T14:21:38.924Z,99055.00
2022-12-23T14:24:47.964Z,99051.00
2022-12-23T14:27:36.678Z,99047.00
2022-12-23T14:30:16.555Z,99053.00
2022-12-23T14:32:51.191Z,99043.00
2022-12-23T14:35:57.398Z,99056.00
2022-12-23T14:38:32.696Z,99061.00
2022-12-23T14:41:25.394Z,99055.00
2022-12-23T14:43:59.883Z,99050.00
2022-12-23T14:47:00.358Z,99051.00
2022-12-23T14:49:42.963Z,99050.00
2022-12-23T14:52:49.082Z,99037.00
2022-12-23T14:55:47.738Z,99038.00
2022-12-23T14:58:51.513Z,99042.00
2022-12-23T15:01:27.533Z,99048.00
2022-12-23T15:04:01.871Z,99041.00
2022-12-23T15:06:38.200Z,99042.00
2022-12-23T15:09:10.556Z,99040.00
2022-12-23T15:11:42.299Z,99042.00
2022-12-23T15:14:20.725Z,99047.00
2022-12-23T15:16:49.518Z,99042.00
2022-12-23T15:19:23.246Z,99044.00
2022-12-23T15:22:02.002Z,99049.00
2022-12-23T15:24:36.388Z,99042.00
2022-12-23T15:27:26.407Z,99055.00
2022-12-23T15:29:56.693Z,99048.00
2022-12-23T15:32:28.033Z,99051.00
2022-12-23T15:35:06.326Z,99050.00
2022-12-23T15:37:35.827Z,99040.00
2022-12-23T15:40:12.597Z,99049.00
2022-12-23T15:42:49.912Z,99047.00
2022-12-23T15:45:36.289Z,99051.00
2022-12-23T15:48:23.846Z,99042.00
2022-12-23T15:51:00.621Z,99054.00
2022-12-23T15:53:34.753Z,99053.00
2022-12-23T15:56:09.906Z,99049.00
2022-12-23T15:58:43.485Z,99042.00
2022-12-23T16:01:16.956Z,99052.00
2022-12-23T16:03:54.395Z,99050.00
2022-12-23T16:06:28.942Z,99043.00
2022-12-23T16:09:01.150Z,99048.00
2022-12-23T16:11:49.117Z,99041.00
2022-12-23T16:14:34.305Z,99036.00
2022-12-23T16:17:15.291Z,99031.00
2022-12-23T16:19:47.922Z,99023.00
2022-12-23T16:22:29.179Z,99016.00
2022-12-23T16:25:20.259Z,99040.00
2022-12-23T16:27:55.345Z,99029.00
2022-12-23T16:30:30.456Z,99032.00
2022-12-23T16:33:02.993Z,99034.00
2022-12-23T16:35:38.255Z,99034.00
2022-12-23T16:38:18.270Z,99034.00
2022-12-23T16:40:49.539Z,99035.00
2022-12-23T16:43:19.431Z,99035.00
2022-12-23T16:45:53.137Z,99033.00
2022-12-23T16:48:31.109Z,99038.00
2022-12-23T16:51:00.386Z,99039.00
2022-12-23T16:53:30.527Z,99042.00
2022-12-23T16:56:01.088Z,99035.00
2022-12-23T16:58:30.576Z,99038.00
2022-12-23T17:00:59.395Z,99036.00
2022-12-23T17:03:28.246Z,99040.00
2022-12-23T17:05:57.292Z,99029.00
2022-12-23T17:08:26.035Z,99024.00
2022-12-23T17:10:58.364Z,99023.00
2022-12-23T17:13:26.990Z,99024.00
2022-12-23T17:15:55.642Z,99025.00
2022-12-23T17:18:24.378Z,99038.00
2022-12-23T17:20:53.029Z,99034.00
2022-12-23T17:23:35.714Z,99026.00
2022-12-23T17:26:05.773Z,99023.00
2022-12-23T17:28:34.747Z,99027.00
2022-12-23T17:31:08.607Z,99026.00
2022-12-23T17:33:39.566Z,99028.00
2022-12-23T17:36:08.775Z,99024.00
2022-12-23T17:38:37.422Z,99013.00
2022-12-23T17:41:07.993Z,99021.00
2022-12-23T17:43:36.732Z,99011.00
2022-12-23T17:46:06.072Z,99012.00
2022-12-23T17:48:34.773Z,99008.00
2022-12-23T17:51:03.509Z,99011.00
2022-12-23T17:53:32.271Z,99014.00
2022-12-23T17:56:00.875Z,98998.00
2022-12-23T17:58:30.941Z,99011.00
2022-12-23T18:00:59.738Z,99001.00
2022-12-23T18:03:28.377Z,99006.00
2022-12-23T18:06:01.617Z,99002.00
2022-12-23T18:08:31.093Z,99003.00
2022-12-23T18:11:00.923Z,98989.00
2022-12-23T18:13:31.311Z,98992.00
2022-12-23T18:16:00.072Z,98995.00
2022-12-23T18:18:36.788Z,98999.00
2022-12-23T18:21:21.731Z,98995.00
2022-12-23T18:23:50.978Z,99004.00
2022-12-23T18:26:19.687Z,98999.00
2022-12-23T18:28:54.267Z,99001.00
2022-12-23T18:31:27.358Z,98995.00
2022-12-23T18:33:56.554Z,98988.00
2022-12-23T18:36:27.869Z,98996.00
2022-12-23T18:38:57.328Z,98994.00
2022-12-23T18:41:28.096Z,98990.00
2022-12-23T18:43:58.354Z,98992.00
2022-12-23T18:46:27.065Z,98992.00
2022-12-23T18:48:55.940Z,98992.00
2022-12-23T18:51:24.527Z,98985.00
2022-12-23T18:53:53.220Z,98986.00
2022-12-23T18:56:22.793Z,98986.00
2022-12-23T18:58:51.508Z,98987.00
2022-12-23T19:01:21.667Z,98979.00
2022-12-23T19:03:50.409Z,98987.00
2022-12-23T19:06:19.271Z,98984.00
2022-12-23T19:08:48.596Z,98989.00
2022-12-23T19:11:21.535Z,98985.00
2022-12-23T19:13:50.235Z,98977.00
2022-12-23T19:16:22.634Z,98981.00
2022-12-23T19:18:52.270Z,98978.00
2022-12-23T19:21:21.672Z,98989.00
2022-12-23T19:23:50.522Z,98987.00
2022-12-23T19:26:19.642Z,98985.00
2022-12-23T19:28:48.979Z,98982.00
2022-12-23T19:31:20.986Z,98985.00
2022-12-23T19:33:49.915Z,98978.00
2022-12-23T19:36:22.792Z,98987.00
2022-12-23T19:38:52.746Z,98987.00
2022-12-23T19:41:21.652Z,98990.00
2022-12-23T19:43:50.667Z,98978.00
2022-12-23T19:46:21.368Z,98982.00
2022-12-23T19:48:53.571Z,98993.00
2022-12-23T19:51:22.553Z,98991.00
2022-12-23T19:53:53.306Z,98986.00
2022-12-23T19:56:22.764Z,98977.00
2022-12-23T19:58:52.321Z,98983.00
2022-12-23T20:01:25.206Z,98988.00
2022-12-23T20:03:57.028Z,98982.00
2022-12-23T20:06:28.401Z,98999.00
2022-12-23T20:09:01.053Z,98985.00
2022-12-23T20:11:32.726Z,98988.00
2022-12-23T20:14:02.903Z,98987.00
2022-12-23T20:16:35.523Z,98980.00
2022-12-23T20:19:04.873Z,98988.00
2022-12-23T20:21:34.126Z,98986.00
2022-12-23T20:24:03.411Z,98985.00
2022-12-23T20:26:32.473Z,98987.00
2022-12-23T20:29:01.383Z,98976.00
2022-12-23T20:31:34.378Z,98974.00
2022-12-23T20:34:03.997Z,98981.00
2022-12-23T20:36:35.359Z,98983.00
2022-12-23T20:39:05.739Z,98982.00
2022-12-23T20:41:34.941Z,98980.00
2022-12-23T20:46:54.104Z,98982.00
2022-12-23T20:49:23.060Z,98987.00
2022-12-23T20:51:51.951Z,98976.00
2022-12-23T20:54:24.932Z,98975.00
2022-12-23T20:56:56.905Z,98986.00
2022-12-23T20:59:25.681Z,98988.00
2022-12-23T21:01:56.649Z,98987.00
2022-12-23T21:04:25.549Z,98982.00
2022-12-23T21:06:54.504Z,98979.00
2022-12-23T21:09:23.155Z,98983.00
2022-12-23T21:11:51.810Z,98982.00
2022-12-23T21:14:20.621Z,98985.00
2022-12-23T21:16:49.417Z,98997.00
2022-12-23T21:19:23.411Z,98995.00
2022-12-23T21:21:53.663Z,98986.00
2022-12-23T21:24:22.814Z,98990.00
2022-12-23T21:26:56.588Z,98990.00
2022-12-23T21:29:26.760Z,98990.00
2022-12-23T21:31:58.517Z,98990.00
2022-12-23T21:34:28.666Z,98989.00
2022-12-23T21:36:57.366Z,98991.00
2022-12-23T21:39:26.106Z,98985.00
2022-12-23T21:41:54.783Z,98984.00
2022-12-23T21:44:23.613Z,98986.00
2022-12-23T21:46:53.099Z,98985.00
2022-12-23T21:49:22.662Z,98992.00
2022-12-23T21:51:52.736Z,98995.00
2022-12-23T21:54:22.219Z,98999.00
2022-12-23T21:56:50.949Z,99001.00
2022-12-23T21:59:19.664Z,99001.00
2022-12-23T22:01:50.284Z,99002.00
2022-12-23T22:04:19.088Z,98995.00
2022-12-23T22:06:47.782Z,99006.00
2022-12-23T22:09:20.575Z,99003.00
2022-12-23T22:11:49.945Z,98998.00
2022-12-23T22:14:20.826Z,98995.00
2022-12-23T22:16:49.656Z,99002.00
2022-12-23T22:19:18.623Z,98999.00
2022-12-23T22:21:47.406Z,98999.00
2022-12-23T22:24:17.481Z,98993.00
2022-12-23T22:26:47.164Z,98992.00
2022-12-23T22:29:15.992Z,98991.00
2022-12-23T22:31:48.048Z,99000.00
2022-12-23T22:34:20.448Z,99000.00
2022-12-23T22:36:50.420Z,98989.00
2022-12-23T22:39:22.925Z,99000.00
2022-12-23T22:41:52.552Z,98996.00
2022-12-23T22:44:21.987Z,98996.00
2022-12-23T22:46:51.247Z,98997.00
2022-12-23T22:49:20.153Z,98995.00
2022-12-23T22:51:48.998Z,98995.00
2022-12-23T22:54:17.653Z,98993.00
2022-12-23T22:56:47.741Z,98990.00
2022-12-23T22:59:22.231Z,98998.00
2022-12-23T23:01:51.836Z,98988.00
2022-12-23T23:04:21.077Z,98991.00
2022-12-23T23:06:50.467Z,99000.00
2022-12-23T23:09:22.637Z,98998.00
2022-12-23T23:11:52.961Z,99003.00
2022-12-23T23:14:22.196Z,98994.00
2022-12-23T23:16:51.001Z,98991.00
2022-12-23T23:19:20.672Z,98995.00
2022-12-23T23:21:49.952Z,99000.00
2022-12-23T23:24:18.674Z,98998.00
2022-12-23T23:26:47.277Z,98992.00
2022-12-23T23:29:17.333Z,98989.00
2022-12-23T23:31:46.166Z,99000.00
2022-12-23T23:34:15.104Z,98999.00
2022-12-23T23:36:43.873Z,99005.00
2022-12-23T23:39:13.948Z,99006.00
2022-12-23T23:41:43.171Z,99007.00
2022-12-23T23:44:12.623Z,98999.00
2022-12-23T23:46:42.662Z,99016.00
2022-12-23T23:49:11.328Z,99012.00
2022-12-23T23:51:41.673Z,99011.00
2022-12-23T23:54:10.966Z,99019.00
2022-12-23T23:56:40.007Z,99015.00
2022-12-23T23:59:09.574Z,99016.00
